Weather at Grevena General Hospital Heliport

Public forecast

Using degrees Celsius for public forecast. Weather courtesy of forecast.io.

Closest aviation weather report (METAR) to Grevena General Hospital Heliport

Closest report is Kozani National Airport Filippos, 21.9 nm (40.5 km) ENE.

2024/05/28 17:50 (retrieved 15 minutes ago)

LGKZ 281750Z AUTO VRB02KT //// // ////// 17/06 Q1015 RE//

Closest aviation forecast (TAF) to Grevena General Hospital Heliport

Closest forecast is Ohrid St. Paul the Apostle Airport, 72.8 nm (134.9 km) NNW.

2024/05/28 18:12 (retrieved 0 seconds ago)

TAF TAF LWOH 281710Z 2818/2918 34005KT 9999 FEW040 SCT090 TEMPO 2910/2918 VRB15KT TSRA FEW033CB BKN040